createdAt,value
2022-09-07T00:00:45.278Z,19.30
2022-09-07T00:05:49.897Z,19.30
2022-09-07T00:10:55.141Z,19.30
2022-09-07T00:16:00.253Z,19.30
2022-09-07T00:21:06.511Z,19.30
2022-09-07T00:26:11.899Z,19.30
2022-09-07T00:31:18.733Z,19.30
2022-09-07T00:36:23.063Z,19.30
2022-09-07T00:41:25.943Z,19.30
2022-09-07T00:46:31.403Z,19.30
2022-09-07T00:51:38.835Z,19.30
2022-09-07T00:56:44.158Z,19.30
2022-09-07T01:01:48.503Z,19.30
2022-09-07T01:06:54.353Z,19.30
2022-09-07T01:12:01.399Z,19.30
2022-09-07T01:17:12.211Z,19.30
2022-09-07T01:22:33.407Z,19.30
2022-09-07T01:28:06.401Z,19.20
2022-09-07T01:33:32.946Z,19.20
2022-09-07T01:38:40.303Z,19.20
2022-09-07T01:43:50.399Z,19.10
2022-09-07T01:48:55.936Z,19.10
2022-09-07T01:54:04.468Z,19.10
2022-09-07T01:59:15.178Z,19.10
2022-09-07T02:04:22.370Z,19.00
2022-09-07T02:09:26.985Z,19.00
2022-09-07T02:14:36.483Z,19.00
2022-09-07T02:19:45.209Z,19.00
2022-09-07T02:24:51.375Z,19.00
2022-09-07T02:29:55.679Z,18.90
2022-09-07T02:34:58.365Z,18.90
2022-09-07T02:40:01.490Z,18.90
2022-09-07T02:45:08.791Z,18.90
2022-09-07T02:50:31.938Z,18.90
2022-09-07T02:55:44.960Z,19.00
2022-09-07T03:00:56.121Z,19.00
2022-09-07T03:06:01.737Z,19.00
2022-09-07T03:11:06.056Z,19.10
2022-09-07T03:16:14.457Z,19.00
2022-09-07T03:21:17.107Z,18.90
2022-09-07T03:26:24.682Z,18.80
2022-09-07T03:31:29.189Z,18.80
2022-09-07T03:36:32.921Z,18.80
2022-09-07T03:41:35.619Z,18.70
2022-09-07T03:46:39.926Z,18.70
2022-09-07T03:51:42.860Z,18.80
2022-09-07T03:56:45.632Z,18.80
2022-09-07T04:01:50.210Z,18.80
2022-09-07T04:06:53.449Z,18.70
2022-09-07T04:11:56.286Z,18.70
2022-09-07T04:17:00.605Z,18.70
2022-09-07T04:22:03.678Z,18.70
2022-09-07T04:27:06.625Z,18.70
2022-09-07T04:32:15.823Z,18.70
2022-09-07T04:37:19.133Z,18.70
2022-09-07T04:42:22.206Z,18.70
2022-09-07T04:47:26.683Z,18.80
2022-09-07T04:52:29.527Z,18.80
2022-09-07T04:57:32.677Z,18.80
2022-09-07T05:02:37.660Z,18.90
2022-09-07T05:07:41.493Z,18.90
2022-09-07T05:12:44.336Z,19.00
2022-09-07T05:17:48.605Z,19.00
2022-09-07T05:22:55.158Z,19.10
2022-09-07T05:27:57.997Z,19.10
2022-09-07T05:33:02.417Z,19.10
2022-09-07T05:38:05.433Z,19.10
2022-09-07T05:43:08.578Z,19.00
2022-09-07T05:48:13.226Z,18.90
2022-09-07T05:53:16.177Z,18.80
2022-09-07T05:58:19.675Z,18.60
2022-09-07T06:03:24.312Z,18.50
2022-09-07T06:08:26.812Z,18.40
2022-09-07T06:13:29.358Z,18.30
2022-09-07T06:18:35.186Z,18.30
2022-09-07T06:23:42.478Z,18.30
2022-09-07T06:28:49.230Z,18.40
2022-09-07T06:33:55.637Z,18.40
2022-09-07T06:39:00.181Z,18.40
2022-09-07T06:44:03.459Z,18.40
2022-09-07T06:49:07.913Z,18.40
2022-09-07T06:59:36.215Z,18.40
2022-09-07T07:04:41.432Z,18.50
2022-09-07T07:09:44.430Z,18.60
2022-09-07T07:14:47.793Z,18.80
2022-09-07T07:19:52.087Z,18.90
2022-09-07T07:24:54.726Z,18.90
2022-09-07T07:29:57.459Z,18.90
2022-09-07T07:35:03.184Z,19.00
2022-09-07T07:50:40.781Z,19.20
2022-09-07T07:55:44.200Z,19.40
2022-09-07T08:00:57.270Z,19.80
2022-09-07T08:06:09.516Z,20.30
2022-09-07T08:11:14.866Z,20.60
2022-09-07T08:16:20.448Z,20.90
2022-09-07T08:21:25.412Z,21.00
2022-09-07T08:26:29.606Z,21.10
2022-09-07T08:32:04.173Z,21.30
2022-09-07T08:37:14.725Z,21.70
2022-09-07T08:43:16.792Z,22.40
2022-09-07T08:48:42.257Z,22.80
2022-09-07T08:53:48.076Z,23.20
2022-09-07T08:58:52.785Z,23.60
2022-09-07T09:04:19.176Z,24.10
2022-09-07T09:09:33.866Z,24.60
2022-09-07T09:14:54.056Z,24.90
2022-09-07T09:20:04.210Z,25.20
2022-09-07T09:25:18.697Z,25.40
2022-09-07T09:30:24.272Z,25.70
2022-09-07T09:35:32.695Z,25.80
2022-09-07T09:40:39.153Z,25.70
2022-09-07T09:56:58.787Z,26.20
2022-09-07T10:07:54.356Z,26.50
2022-09-07T10:12:58.677Z,26.50
2022-09-07T10:18:02.525Z,26.60
2022-09-07T10:23:07.373Z,26.90
2022-09-07T10:28:19.226Z,26.80
2022-09-07T10:33:30.537Z,26.70
2022-09-07T10:38:37.412Z,26.50
2022-09-07T10:44:18.818Z,26.30
2022-09-07T10:49:25.817Z,25.90
2022-09-07T10:54:39.081Z,25.60
2022-09-07T11:05:45.641Z,25.30
2022-09-07T11:10:57.192Z,25.30
2022-09-07T11:16:05.356Z,25.20
2022-09-07T11:21:56.169Z,25.30
2022-09-07T11:32:46.020Z,25.80
2022-09-07T11:37:53.421Z,25.70
2022-09-07T11:43:02.165Z,25.80
2022-09-07T11:48:11.973Z,26.20
2022-09-07T11:53:20.935Z,26.80
2022-09-07T11:59:01.297Z,27.30
2022-09-07T12:04:48.354Z,28.00
2022-09-07T12:10:18.820Z,28.60
2022-09-07T12:15:30.301Z,29.00
2022-09-07T12:20:43.055Z,29.30
2022-09-07T12:25:49.979Z,29.20
2022-09-07T12:30:59.467Z,29.30
2022-09-07T12:36:49.251Z,29.40
2022-09-07T12:47:32.833Z,29.30
2022-09-07T12:52:52.187Z,29.40
2022-09-07T12:58:16.503Z,29.50
2022-09-07T13:03:55.861Z,29.50
2022-09-07T13:09:33.293Z,29.50
2022-09-07T13:14:42.834Z,29.50
2022-09-07T13:20:17.773Z,29.70
2022-09-07T13:25:44.423Z,29.80
2022-09-07T13:31:02.545Z,29.80
2022-09-07T13:36:16.287Z,29.90
2022-09-07T13:41:23.111Z,29.80
2022-09-07T13:46:47.601Z,29.80
2022-09-07T13:51:55.652Z,29.70
2022-09-07T13:57:12.085Z,29.50
2022-09-07T14:02:24.751Z,29.40
2022-09-07T14:07:31.963Z,29.40
2022-09-07T14:12:52.018Z,29.50
2022-09-07T14:18:05.575Z,29.40
2022-09-07T14:23:22.260Z,29.30
2022-09-07T14:28:36.508Z,29.10
2022-09-07T14:33:46.804Z,28.90
2022-09-07T14:39:06.469Z,28.70
2022-09-07T14:44:29.129Z,28.70
2022-09-07T14:49:34.250Z,28.90
2022-09-07T14:54:37.614Z,29.00
2022-09-07T14:59:43.663Z,29.10
2022-09-07T15:04:50.549Z,29.20
2022-09-07T15:09:53.754Z,29.20
2022-09-07T15:14:56.752Z,29.10
2022-09-07T15:20:01.573Z,28.90
2022-09-07T15:25:05.511Z,28.60
2022-09-07T15:30:12.155Z,28.60
2022-09-07T15:35:17.007Z,28.70
2022-09-07T15:40:23.280Z,28.90
2022-09-07T15:45:26.825Z,28.90
2022-09-07T15:50:32.421Z,28.90
2022-09-07T15:55:37.190Z,28.70
2022-09-07T16:00:40.463Z,28.20
2022-09-07T16:05:45.310Z,27.80
2022-09-07T16:11:05.377Z,27.50
2022-09-07T16:16:08.876Z,27.30
2022-09-07T16:21:14.026Z,27.00
2022-09-07T16:26:18.581Z,26.80
2022-09-07T16:31:24.233Z,26.60
2022-09-07T16:36:28.659Z,26.30
2022-09-07T16:41:32.580Z,26.10
2022-09-07T16:46:35.805Z,26.00
2022-09-07T16:51:41.252Z,25.80
2022-09-07T16:56:44.671Z,25.70
2022-09-07T17:01:48.459Z,25.60
2022-09-07T17:06:53.190Z,25.50
2022-09-07T17:11:56.210Z,25.30
2022-09-07T17:16:59.333Z,25.20
2022-09-07T17:22:03.917Z,25.10
2022-09-07T17:27:06.557Z,25.00
2022-09-07T17:32:25.500Z,24.90
2022-09-07T17:37:30.883Z,24.80
2022-09-07T17:47:57.258Z,24.50
2022-09-07T17:53:01.990Z,24.30
2022-09-07T17:58:05.520Z,24.30
2022-09-07T18:03:08.556Z,24.10
2022-09-07T18:08:15.442Z,24.00
2022-09-07T18:13:23.462Z,23.90
2022-09-07T18:18:34.234Z,23.80
2022-09-07T18:23:38.394Z,23.60
2022-09-07T18:34:04.952Z,23.50
2022-09-07T18:39:09.200Z,23.40
2022-09-07T18:49:34.910Z,23.30
2022-09-07T18:54:40.179Z,23.10
2022-09-07T18:59:43.008Z,23.10
2022-09-07T19:10:10.526Z,22.90
2022-09-07T19:15:13.549Z,22.90
2022-09-07T19:20:16.270Z,22.90
2022-09-07T19:25:20.489Z,22.80
2022-09-07T19:30:23.108Z,22.70
2022-09-07T19:35:26.397Z,22.60
2022-09-07T19:40:30.720Z,22.40
2022-09-07T19:45:37.284Z,22.30
2022-09-07T19:50:40.374Z,22.10
2022-09-07T19:55:46.829Z,22.10
2022-09-07T20:00:49.465Z,22.10
2022-09-07T20:05:53.521Z,22.00
2022-09-07T20:11:02.430Z,21.90
2022-09-07T20:16:06.577Z,21.80
2022-09-07T20:21:11.002Z,21.80
2022-09-07T20:26:18.369Z,21.80
2022-09-07T20:31:21.774Z,21.80
2022-09-07T20:36:24.896Z,21.80
2022-09-07T20:41:31.805Z,21.80
2022-09-07T20:46:34.509Z,21.70
2022-09-07T20:51:37.483Z,21.60
2022-09-07T20:56:41.847Z,21.50
2022-09-07T21:01:44.527Z,21.50
2022-09-07T21:06:47.085Z,21.40
2022-09-07T21:11:55.107Z,21.40
2022-09-07T21:16:59.665Z,21.40
2022-09-07T21:22:03.355Z,21.40
2022-09-07T21:27:07.647Z,21.30
2022-09-07T21:32:10.345Z,21.30
2022-09-07T21:37:13.015Z,21.20
2022-09-07T21:42:17.080Z,21.10
2022-09-07T21:47:19.792Z,21.10
2022-09-07T21:52:22.415Z,21.00
2022-09-07T21:57:26.680Z,20.90
2022-09-07T22:02:29.450Z,20.90
2022-09-07T22:07:32.385Z,20.80
2022-09-07T22:12:36.809Z,20.80
2022-09-07T22:17:42.238Z,20.70
2022-09-07T22:22:47.254Z,20.60
2022-09-07T22:27:51.360Z,20.60
2022-09-07T22:32:54.125Z,20.50
2022-09-07T22:37:57.278Z,20.50
2022-09-07T22:43:01.488Z,20.40
2022-09-07T22:48:04.497Z,20.20
2022-09-07T22:53:07.817Z,20.10
2022-09-07T22:58:11.985Z,20.00
2022-09-07T23:03:14.605Z,20.00
2022-09-07T23:08:17.262Z,19.90
2022-09-07T23:13:22.580Z,19.80
2022-09-07T23:18:25.285Z,19.80
2022-09-07T23:23:29.028Z,19.80
2022-09-07T23:28:33.496Z,19.70
2022-09-07T23:33:36.213Z,19.60
2022-09-07T23:38:38.962Z,19.50
2022-09-07T23:43:43.268Z,19.50
2022-09-07T23:48:47.007Z,19.50
2022-09-07T23:53:49.813Z,19.50
2022-09-07T23:58:53.956Z,19.60
